THY5TW LTFM-LTBZ
Flight info
| Callsign | THY5TW |
|---|---|
| Flight time | 0h 37m |
| Altitude | 27000 |
| Route | RATVU1D/35L RATVU T35 NUMTI T409 KARGI |
| Aircraft | B738/M-SDE2E3FGHIRWXY/LB1 |
Departure
| Time | 2026-05-01 11:17 |
|---|---|
| Airport | İstanbul Airport (LTFM) |
Arrival
| Time | 2026-05-01 11:55 |
|---|---|
| Airport | Zafer Airport (LTBZ) |
| Time | Latitude | Longitude | Altitude | Speed | Heading |
|---|---|---|---|---|---|
| 2026-05-01 10:51 | 41.26308 | 28.73606 | 333 ft | 0 kts | 70° |
| 2026-05-01 11:07 | 41.26304 | 28.73589 | 333 ft | 2 kts | 75° |
| 2026-05-01 11:07 | 41.26300 | 28.73568 | 328 ft | 2 kts | 79° |
| 2026-05-01 11:07 | 41.26297 | 28.73546 | 328 ft | 2 kts | 88° |
| 2026-05-01 11:07 | 41.26298 | 28.73524 | 332 ft | 2 kts | 100° |
| 2026-05-01 11:08 | 41.26303 | 28.73504 | 332 ft | 2 kts | 120° |
| 2026-05-01 11:08 | 41.26313 | 28.73486 | 328 ft | 2 kts | 143° |
| 2026-05-01 11:08 | 41.26328 | 28.73475 | 331 ft | 0 kts | 160° |
| 2026-05-01 11:10 | 41.26326 | 28.73476 | 331 ft | 1 kts | 159° |
| 2026-05-01 11:10 | 41.26310 | 28.73485 | 330 ft | 4 kts | 159° |
| 2026-05-01 11:11 | 41.26272 | 28.73500 | 330 ft | 7 kts | 173° |
| 2026-05-01 11:11 | 41.26226 | 28.73467 | 331 ft | 9 kts | 244° |
| 2026-05-01 11:11 | 41.26217 | 28.73376 | 331 ft | 11 kts | 266° |
| 2026-05-01 11:11 | 41.26217 | 28.73260 | 332 ft | 13 kts | 271° |
| 2026-05-01 11:12 | 41.26217 | 28.73139 | 332 ft | 13 kts | 270° |
| 2026-05-01 11:12 | 41.26216 | 28.73040 | 333 ft | 9 kts | 268° |
| 2026-05-01 11:12 | 41.26214 | 28.72976 | 333 ft | 4 kts | 268° |
| 2026-05-01 11:12 | 41.26214 | 28.72962 | 333 ft | 0 kts | 268° |
| 2026-05-01 11:14 | 41.26214 | 28.72959 | 333 ft | 1 kts | 268° |
| 2026-05-01 11:14 | 41.26213 | 28.72930 | 333 ft | 5 kts | 268° |
| 2026-05-01 11:14 | 41.26212 | 28.72869 | 333 ft | 8 kts | 268° |
| 2026-05-01 11:14 | 41.26210 | 28.72779 | 328 ft | 11 kts | 268° |
| 2026-05-01 11:15 | 41.26208 | 28.72665 | 333 ft | 13 kts | 269° |
| 2026-05-01 11:15 | 41.26217 | 28.72553 | 329 ft | 12 kts | 303° |
| 2026-05-01 11:15 | 41.26272 | 28.72522 | 331 ft | 0 kts | 359° |
| 2026-05-01 11:16 | 41.26273 | 28.72522 | 331 ft | 3 kts | 359° |
| 2026-05-01 11:17 | 41.26526 | 28.72515 | 332 ft | 72 kts | 359° |
| 2026-05-01 11:17 | 41.27252 | 28.72493 | 332 ft | 134 kts | 359° |
| 2026-05-01 11:17 | 41.28240 | 28.72467 | 869 ft | 143 kts | 4° |
| 2026-05-01 11:17 | 41.29243 | 28.72478 | 1673 ft | 147 kts | 8° |
| 2026-05-01 11:18 | 41.30260 | 28.72522 | 2367 ft | 148 kts | 6° |
| 2026-05-01 11:18 | 41.31371 | 28.72538 | 2658 ft | 171 kts | 5° |
| 2026-05-01 11:18 | 41.32660 | 28.72551 | 2954 ft | 198 kts | 4° |
| 2026-05-01 11:18 | 41.34123 | 28.72572 | 3149 ft | 218 kts | 3° |
| 2026-05-01 11:19 | 41.35632 | 28.72300 | 3542 ft | 232 kts | 341° |
| 2026-05-01 11:19 | 41.37041 | 28.71067 | 3894 ft | 254 kts | 316° |
| 2026-05-01 11:19 | 41.37968 | 28.69003 | 4404 ft | 266 kts | 289° |
| 2026-05-01 11:19 | 41.38206 | 28.66582 | 5203 ft | 263 kts | 270° |
| 2026-05-01 11:20 | 41.38169 | 28.64141 | 5916 ft | 264 kts | 269° |
| 2026-05-01 11:20 | 41.38124 | 28.61706 | 6668 ft | 262 kts | 269° |
| 2026-05-01 11:20 | 41.38017 | 28.59287 | 7357 ft | 266 kts | 258° |
| 2026-05-01 11:20 | 41.37200 | 28.57116 | 8231 ft | 261 kts | 231° |
| 2026-05-01 11:21 | 41.35784 | 28.55653 | 9031 ft | 265 kts | 207° |
| 2026-05-01 11:21 | 41.33966 | 28.55048 | 9720 ft | 276 kts | 185° |
| 2026-05-01 11:21 | 41.32024 | 28.55068 | 10327 ft | 285 kts | 182° |
| 2026-05-01 11:21 | 41.29965 | 28.55139 | 10471 ft | 307 kts | 182° |
| 2026-05-01 11:22 | 41.27757 | 28.55208 | 10649 ft | 327 kts | 182° |
| 2026-05-01 11:22 | 41.25445 | 28.55636 | 10982 ft | 347 kts | 164° |
| 2026-05-01 11:22 | 41.23316 | 28.57229 | 11568 ft | 360 kts | 142° |
| 2026-05-01 11:22 | 41.21483 | 28.59518 | 12262 ft | 363 kts | 138° |
| 2026-05-01 11:23 | 41.19684 | 28.61904 | 12885 ft | 368 kts | 137° |
| 2026-05-01 11:23 | 41.17881 | 28.64287 | 13523 ft | 372 kts | 138° |
| 2026-05-01 11:23 | 41.16020 | 28.66700 | 14204 ft | 377 kts | 139° |
| 2026-05-01 11:23 | 41.14125 | 28.69129 | 14842 ft | 380 kts | 139° |
| 2026-05-01 11:24 | 41.12152 | 28.71479 | 15445 ft | 382 kts | 147° |
| 2026-05-01 11:24 | 41.09868 | 28.73255 | 16057 ft | 381 kts | 160° |
| 2026-05-01 11:24 | 41.04802 | 28.75301 | 17358 ft | 384 kts | 169° |
| 2026-05-01 11:25 | 41.02208 | 28.76225 | 17986 ft | 388 kts | 169° |
| 2026-05-01 11:25 | 40.96946 | 28.78126 | 19126 ft | 396 kts | 169° |
| 2026-05-01 11:25 | 40.94283 | 28.79102 | 19675 ft | 398 kts | 169° |
| 2026-05-01 11:26 | 40.91644 | 28.80074 | 20201 ft | 401 kts | 169° |
| 2026-05-01 11:26 | 40.86236 | 28.82070 | 21243 ft | 406 kts | 169° |
| 2026-05-01 11:26 | 40.83505 | 28.83078 | 21751 ft | 409 kts | 169° |
| 2026-05-01 11:27 | 40.80758 | 28.84091 | 22250 ft | 411 kts | 169° |
| 2026-05-01 11:27 | 40.77990 | 28.85110 | 22771 ft | 414 kts | 169° |
| 2026-05-01 11:27 | 40.75201 | 28.86136 | 23272 ft | 418 kts | 169° |
| 2026-05-01 11:27 | 40.72398 | 28.87167 | 23768 ft | 419 kts | 169° |
| 2026-05-01 11:28 | 40.69617 | 28.88189 | 24177 ft | 421 kts | 169° |
| 2026-05-01 11:28 | 40.66790 | 28.89228 | 24615 ft | 422 kts | 169° |
| 2026-05-01 11:28 | 40.63970 | 28.90264 | 25166 ft | 419 kts | 169° |
| 2026-05-01 11:29 | 40.58383 | 28.92311 | 26260 ft | 415 kts | 170° |
| 2026-05-01 11:29 | 40.55623 | 28.93460 | 26724 ft | 420 kts | 163° |
| 2026-05-01 11:29 | 40.50466 | 28.97286 | 27135 ft | 432 kts | 152° |
| 2026-05-01 11:30 | 40.48007 | 28.99439 | 27147 ft | 429 kts | 151° |
| 2026-05-01 11:30 | 40.45544 | 29.01613 | 27146 ft | 425 kts | 151° |
| 2026-05-01 11:30 | 40.43081 | 29.03766 | 27163 ft | 426 kts | 152° |
| 2026-05-01 11:30 | 40.40608 | 29.05902 | 27160 ft | 426 kts | 152° |
| 2026-05-01 11:31 | 40.38126 | 29.08026 | 27155 ft | 426 kts | 152° |
| 2026-05-01 11:31 | 40.35635 | 29.10145 | 27159 ft | 427 kts | 152° |
| 2026-05-01 11:31 | 40.33143 | 29.12260 | 27162 ft | 427 kts | 152° |
| 2026-05-01 11:31 | 40.30648 | 29.14375 | 27160 ft | 427 kts | 152° |
| 2026-05-01 11:32 | 40.28188 | 29.16459 | 27148 ft | 427 kts | 153° |
| 2026-05-01 11:32 | 40.25696 | 29.18570 | 27154 ft | 427 kts | 152° |
| 2026-05-01 11:32 | 40.23203 | 29.20680 | 27150 ft | 426 kts | 153° |
| 2026-05-01 11:32 | 40.20715 | 29.22784 | 27145 ft | 426 kts | 153° |
| 2026-05-01 11:33 | 40.18183 | 29.24757 | 27136 ft | 421 kts | 159° |
| 2026-05-01 11:33 | 40.15503 | 29.26189 | 27158 ft | 414 kts | 166° |
| 2026-05-01 11:33 | 40.12790 | 29.27445 | 27147 ft | 414 kts | 167° |
| 2026-05-01 11:33 | 40.10074 | 29.28685 | 27132 ft | 413 kts | 166° |
| 2026-05-01 11:34 | 40.07430 | 29.29906 | 27125 ft | 402 kts | 166° |
| 2026-05-01 11:34 | 40.04838 | 29.31123 | 27119 ft | 392 kts | 166° |
| 2026-05-01 11:34 | 40.02285 | 29.32326 | 27135 ft | 388 kts | 166° |
| 2026-05-01 11:34 | 39.99745 | 29.33524 | 27142 ft | 389 kts | 166° |
| 2026-05-01 11:35 | 39.97191 | 29.34729 | 26906 ft | 393 kts | 166° |
| 2026-05-01 11:35 | 39.94636 | 29.35938 | 26629 ft | 388 kts | 166° |
| 2026-05-01 11:35 | 39.92107 | 29.37135 | 26235 ft | 385 kts | 166° |
| 2026-05-01 11:35 | 39.89606 | 29.38352 | 25881 ft | 383 kts | 165° |
| 2026-05-01 11:36 | 39.87185 | 29.39653 | 25536 ft | 380 kts | 163° |
| 2026-05-01 11:36 | 39.84759 | 29.41008 | 25150 ft | 378 kts | 163° |
| 2026-05-01 11:36 | 39.82352 | 29.42360 | 24780 ft | 376 kts | 163° |
| 2026-05-01 11:36 | 39.79952 | 29.43699 | 24400 ft | 374 kts | 163° |
| 2026-05-01 11:37 | 39.77566 | 29.45020 | 24017 ft | 372 kts | 163° |
| 2026-05-01 11:37 | 39.75196 | 29.46324 | 23643 ft | 370 kts | 163° |
| 2026-05-01 11:37 | 39.72833 | 29.47621 | 23202 ft | 368 kts | 163° |
| 2026-05-01 11:37 | 39.70480 | 29.48910 | 22783 ft | 365 kts | 163° |
| 2026-05-01 11:38 | 39.68145 | 29.50188 | 22408 ft | 363 kts | 163° |
| 2026-05-01 11:38 | 39.65887 | 29.51554 | 22020 ft | 367 kts | 154° |
| 2026-05-01 11:38 | 39.63888 | 29.53664 | 21648 ft | 375 kts | 137° |
| 2026-05-01 11:38 | 39.62371 | 29.56426 | 21341 ft | 378 kts | 123° |
| 2026-05-01 11:39 | 39.61153 | 29.59440 | 20969 ft | 377 kts | 121° |
| 2026-05-01 11:39 | 39.59985 | 29.62472 | 20597 ft | 375 kts | 120° |
| 2026-05-01 11:39 | 39.58828 | 29.65489 | 20235 ft | 373 kts | 120° |
| 2026-05-01 11:39 | 39.57669 | 29.68481 | 19870 ft | 370 kts | 121° |
| 2026-05-01 11:40 | 39.56505 | 29.71450 | 19516 ft | 369 kts | 121° |
| 2026-05-01 11:40 | 39.55354 | 29.74358 | 19154 ft | 367 kts | 121° |
| 2026-05-01 11:40 | 39.54185 | 29.77293 | 18799 ft | 366 kts | 121° |
| 2026-05-01 11:40 | 39.53016 | 29.80220 | 18428 ft | 365 kts | 121° |
| 2026-05-01 11:41 | 39.51846 | 29.83141 | 18020 ft | 365 kts | 121° |
| 2026-05-01 11:41 | 39.50680 | 29.86049 | 17609 ft | 364 kts | 121° |
| 2026-05-01 11:41 | 39.49518 | 29.88949 | 17224 ft | 362 kts | 120° |
| 2026-05-01 11:41 | 39.48362 | 29.91829 | 16833 ft | 360 kts | 120° |
| 2026-05-01 11:42 | 39.47225 | 29.94660 | 16474 ft | 358 kts | 120° |
| 2026-05-01 11:42 | 39.46082 | 29.97503 | 16109 ft | 355 kts | 120° |
| 2026-05-01 11:42 | 39.44945 | 30.00326 | 15760 ft | 353 kts | 120° |
| 2026-05-01 11:42 | 39.43737 | 30.03063 | 15396 ft | 347 kts | 131° |
| 2026-05-01 11:43 | 39.41999 | 30.05084 | 15060 ft | 329 kts | 153° |
| 2026-05-01 11:43 | 39.39962 | 30.06208 | 14728 ft | 311 kts | 171° |
| 2026-05-01 11:43 | 39.37865 | 30.06768 | 14442 ft | 306 kts | 174° |
| 2026-05-01 11:44 | 39.33684 | 30.07750 | 13768 ft | 305 kts | 174° |
| 2026-05-01 11:44 | 39.31629 | 30.08257 | 13412 ft | 304 kts | 173° |
| 2026-05-01 11:44 | 39.29563 | 30.08807 | 13070 ft | 304 kts | 167° |
| 2026-05-01 11:44 | 39.27689 | 30.10110 | 12727 ft | 311 kts | 142° |
| 2026-05-01 11:45 | 39.26208 | 30.12144 | 12433 ft | 311 kts | 134° |
| 2026-05-01 11:45 | 39.24826 | 30.14292 | 12102 ft | 311 kts | 133° |
| 2026-05-01 11:45 | 39.23463 | 30.16447 | 11775 ft | 310 kts | 133° |
| 2026-05-01 11:45 | 39.22098 | 30.18597 | 11439 ft | 309 kts | 133° |
| 2026-05-01 11:46 | 39.20735 | 30.20725 | 11120 ft | 307 kts | 133° |
| 2026-05-01 11:46 | 39.19372 | 30.22838 | 10796 ft | 306 kts | 133° |
| 2026-05-01 11:46 | 39.18031 | 30.24908 | 10473 ft | 301 kts | 133° |
| 2026-05-01 11:46 | 39.16717 | 30.26934 | 10336 ft | 290 kts | 134° |
| 2026-05-01 11:47 | 39.15422 | 30.28922 | 10209 ft | 289 kts | 134° |
| 2026-05-01 11:47 | 39.14130 | 30.30903 | 10080 ft | 288 kts | 134° |
| 2026-05-01 11:47 | 39.12845 | 30.32872 | 9782 ft | 284 kts | 134° |
| 2026-05-01 11:47 | 39.11590 | 30.34793 | 9488 ft | 276 kts | 133° |
| 2026-05-01 11:48 | 39.10376 | 30.36652 | 9236 ft | 267 kts | 133° |
| 2026-05-01 11:48 | 39.09201 | 30.38449 | 8983 ft | 257 kts | 133° |
| 2026-05-01 11:48 | 39.08003 | 30.40003 | 8718 ft | 240 kts | 153° |
| 2026-05-01 11:48 | 39.06510 | 30.40621 | 8509 ft | 218 kts | 182° |
| 2026-05-01 11:49 | 39.05044 | 30.40384 | 8256 ft | 207 kts | 201° |
| 2026-05-01 11:49 | 39.03812 | 30.39572 | 8013 ft | 192 kts | 220° |
| 2026-05-01 11:49 | 39.02793 | 30.38514 | 7848 ft | 188 kts | 223° |
| 2026-05-01 11:49 | 39.01790 | 30.37425 | 7647 ft | 190 kts | 223° |
| 2026-05-01 11:50 | 39.00770 | 30.36318 | 7424 ft | 193 kts | 223° |
| 2026-05-01 11:50 | 38.99744 | 30.35209 | 7179 ft | 192 kts | 223° |
| 2026-05-01 11:50 | 38.98844 | 30.34021 | 6946 ft | 184 kts | 249° |
| 2026-05-01 11:50 | 38.98832 | 30.32551 | 6972 ft | 165 kts | 296° |
| 2026-05-01 11:51 | 38.99420 | 30.31229 | 6789 ft | 178 kts | 296° |
| 2026-05-01 11:51 | 39.00029 | 30.29837 | 6587 ft | 179 kts | 303° |
| 2026-05-01 11:51 | 39.00724 | 30.28533 | 6332 ft | 175 kts | 306° |
| 2026-05-01 11:51 | 39.01469 | 30.27323 | 6094 ft | 170 kts | 310° |
| 2026-05-01 11:52 | 39.01973 | 30.26559 | 5940 ft | 169 kts | 311° |
| 2026-05-01 11:52 | 39.02728 | 30.25437 | 5738 ft | 164 kts | 312° |
| 2026-05-01 11:52 | 39.03467 | 30.24344 | 5508 ft | 160 kts | 313° |
| 2026-05-01 11:52 | 39.04420 | 30.22938 | 5222 ft | 155 kts | 313° |
| 2026-05-01 11:53 | 39.05133 | 30.21885 | 5031 ft | 158 kts | 314° |
| 2026-05-01 11:53 | 39.05858 | 30.20815 | 4794 ft | 158 kts | 314° |
| 2026-05-01 11:53 | 39.06334 | 30.20113 | 4627 ft | 156 kts | 314° |
| 2026-05-01 11:53 | 39.07285 | 30.18709 | 4300 ft | 155 kts | 314° |
| 2026-05-01 11:54 | 39.07752 | 30.18020 | 4141 ft | 155 kts | 314° |
| 2026-05-01 11:54 | 39.08463 | 30.16972 | 3907 ft | 155 kts | 314° |
| 2026-05-01 11:54 | 39.09163 | 30.15940 | 3722 ft | 150 kts | 313° |
| 2026-05-01 11:54 | 39.09841 | 30.14944 | 3498 ft | 146 kts | 312° |
| 2026-05-01 11:55 | 39.10692 | 30.13689 | 3364 ft | 130 kts | 310° |
| 2026-05-01 11:55 | 39.11027 | 30.13189 | 3360 ft | 88 kts | 311° |
| 2026-05-01 11:55 | 39.11242 | 30.12871 | 3360 ft | 22 kts | 315° |
| 2026-05-01 11:55 | 39.11338 | 30.12844 | 3360 ft | 14 kts | 24° |
| 2026-05-01 11:56 | 39.11408 | 30.12920 | 3361 ft | 13 kts | 46° |
| 2026-05-01 11:56 | 39.11473 | 30.12998 | 3361 ft | 13 kts | 40° |
| 2026-05-01 11:56 | 39.11539 | 30.13070 | 3362 ft | 12 kts | 40° |
| 2026-05-01 11:56 | 39.11604 | 30.13141 | 3362 ft | 12 kts | 40° |
| 2026-05-01 11:57 | 39.11640 | 30.13181 | 3362 ft | 0 kts | 40° |